Time;durP1;ratioP1;P1;durP2;ratioP2;P2;SDS_P1;SDS_P2;PMS_P1;PMS_P2;Temp;Humidity;BMP_temperature;BMP_pressure;BME280_temperature;BME280_humidity;BME280_pressure;Samples;Min_cycle;Max_cycle;Signal;HPM_P1;HPM_P2
2022/09/09 00:02:04;;;;;;;5.23;2.60;;;14.30;99.90;;;;;;5112491;28;20200;-52
2022/09/09 00:04:33;;;;;;;4.20;2.70;;;14.30;99.90;;;;;;5112884;28;20740;-52
2022/09/09 00:07:07;;;;;;;4.93;2.53;;;14.30;99.90;;;;;;5112123;28;20254;-52
2022/09/09 00:09:48;;;;;;;5.30;2.77;;;14.20;99.90;;;;;;5112994;28;20203;-52
2022/09/09 00:12:23;;;;;;;3.27;2.97;;;14.20;99.90;;;;;;5112308;28;20207;-52
2022/09/09 00:14:55;;;;;;;4.43;2.83;;;14.30;99.90;;;;;;5109786;28;20284;-52
2022/09/09 00:17:36;;;;;;;3.83;2.53;;;14.20;99.90;;;;;;5109073;28;20350;-51
2022/09/09 00:20:12;;;;;;;5.77;2.70;;;14.30;99.90;;;;;;5112290;28;20207;-52
2022/09/09 00:22:50;;;;;;;6.37;3.10;;;14.30;99.90;;;;;;5105801;28;20327;-52
2022/09/09 00:25:24;;;;;;;4.70;3.00;;;14.40;99.90;;;;;;5112353;28;20223;-52
2022/09/09 00:27:52;;;;;;;6.57;3.20;;;14.40;99.90;;;;;;5110399;28;20302;-52
2022/09/09 00:30:24;;;;;;;4.43;2.77;;;14.50;99.90;;;;;;5112354;28;20203;-52
2022/09/09 00:32:58;;;;;;;5.03;2.90;;;14.50;99.90;;;;;;5110710;28;20688;-52
2022/09/09 00:35:30;;;;;;;7.30;2.90;;;14.50;99.90;;;;;;5111756;28;20273;-52
2022/09/09 00:38:06;;;;;;;4.40;3.00;;;14.50;99.90;;;;;;5110882;28;20322;-52
2022/09/09 00:40:38;;;;;;;5.00;2.47;;;14.50;99.90;;;;;;5111724;28;20221;-52
2022/09/09 00:43:24;;;;;;;3.50;2.30;;;14.40;99.90;;;;;;5111929;28;20294;-52
2022/09/09 00:46:11;;;;;;;4.00;2.10;;;14.40;99.90;;;;;;5112492;28;20291;-52
2022/09/09 00:48:47;;;;;;;4.87;2.30;;;14.40;99.90;;;;;;5111684;28;20199;-52
2022/09/09 00:51:24;;;;;;;3.50;2.30;;;14.30;99.90;;;;;;5112083;28;20210;-52
2022/09/09 00:54:28;;;;;;;7.13;2.40;;;14.20;99.90;;;;;;5111700;28;20231;-52
2022/09/09 00:57:13;;;;;;;5.00;2.60;;;14.20;99.90;;;;;;5098464;28;20250;-51
2022/09/09 00:59:48;;;;;;;4.77;2.70;;;14.10;99.90;;;;;;5104436;28;20242;-51
2022/09/09 01:02:28;;;;;;;6.03;2.80;;;14.10;99.90;;;;;;5111713;28;20688;-52
2022/09/09 01:05:02;;;;;;;3.47;2.53;;;14.00;99.90;;;;;;5110386;28;20290;-52
2022/09/09 01:07:31;;;;;;;7.23;2.77;;;14.00;99.90;;;;;;5110949;28;20214;-51
2022/09/09 01:10:04;;;;;;;5.20;3.07;;;14.00;99.90;;;;;;5111324;28;20720;-52
2022/09/09 01:12:39;;;;;;;6.20;2.63;;;14.00;99.90;;;;;;5111143;28;20239;-52
2022/09/09 01:15:16;;;;;;;2.83;2.50;;;14.00;99.90;;;;;;5106081;28;20849;-52
2022/09/09 01:17:54;;;;;;;6.87;2.90;;;14.00;99.90;;;;;;5111407;28;20241;-51
2022/09/09 01:20:25;;;;;;;6.67;3.10;;;14.00;99.90;;;;;;5111072;28;20231;-52
2022/09/09 01:23:18;;;;;;;4.83;2.60;;;14.00;99.90;;;;;;5111385;28;20743;-52
2022/09/09 01:26:15;;;;;;;6.87;2.73;;;14.00;99.90;;;;;;5109187;28;20239;-52
2022/09/09 01:28:47;;;;;;;4.30;2.73;;;13.90;99.90;;;;;;5088087;28;20199;-52
2022/09/09 01:31:19;;;;;;;2.73;2.40;;;13.90;99.90;;;;;;5110056;28;20230;-52
2022/09/09 01:33:47;;;;;;;5.20;2.77;;;13.80;99.90;;;;;;5108738;28;20261;-51
2022/09/09 01:36:25;;;;;;;7.67;3.10;;;13.90;99.90;;;;;;5109640;28;20775;-52
2022/09/09 01:38:54;;;;;;;4.50;3.00;;;13.90;99.90;;;;;;5111287;28;20226;-51
2022/09/09 01:41:23;;;;;;;5.23;3.00;;;13.90;99.90;;;;;;5110855;28;20214;-52
2022/09/09 01:43:52;;;;;;;4.90;2.97;;;13.90;99.90;;;;;;5110931;28;20655;-52
2022/09/09 01:46:23;;;;;;;7.00;3.70;;;13.90;99.90;;;;;;5111046;28;20296;-52
2022/09/09 01:48:53;;;;;;;4.63;3.07;;;13.90;99.90;;;;;;5081890;28;20203;-51
2022/09/09 01:51:21;;;;;;;4.80;3.33;;;13.90;99.90;;;;;;5110851;28;20283;-52
2022/09/09 01:53:50;;;;;;;7.47;3.23;;;13.90;99.90;;;;;;5110552;28;20640;-52
2022/09/09 01:56:34;;;;;;;5.57;3.30;;;13.90;99.90;;;;;;5110735;28;20227;-52
2022/09/09 01:59:12;;;;;;;5.50;3.10;;;13.90;99.90;;;;;;5102799;28;20664;-52
2022/09/09 02:01:57;;;;;;;7.20;3.60;;;14.00;99.90;;;;;;5110862;28;20211;-52
2022/09/09 02:04:37;;;;;;;5.07;3.40;;;14.00;99.90;;;;;;5110450;28;20207;-52
2022/09/09 02:07:15;;;;;;;5.60;3.70;;;14.10;99.90;;;;;;5110531;28;20227;-52
2022/09/09 02:09:48;;;;;;;6.83;4.13;;;14.20;99.90;;;;;;5107260;28;20846;-51
2022/09/09 02:12:22;;;;;;;6.03;4.07;;;14.20;99.90;;;;;;5071531;28;20216;-52
2022/09/09 02:14:56;;;;;;;7.50;4.40;;;14.30;99.90;;;;;;5076008;28;20213;-52
2022/09/09 02:17:27;;;;;;;6.73;4.50;;;14.30;99.90;;;;;;5089532;28;20727;-52
2022/09/09 02:20:03;;;;;;;5.20;4.07;;;14.30;99.90;;;;;;5079301;28;20232;-52
2022/09/09 02:22:33;;;;;;;10.17;3.83;;;14.40;99.90;;;;;;5110422;28;20198;-51
2022/09/09 02:25:02;;;;;;;5.47;4.40;;;14.30;99.90;;;;;;5110849;28;20199;-52
2022/09/09 02:27:32;;;;;;;6.77;3.93;;;14.30;99.90;;;;;;5103236;28;20224;-51
2022/09/09 02:30:02;;;;;;;5.27;3.87;;;14.30;99.90;;;;;;5101227;28;20300;-52
2022/09/09 02:32:33;;;;;;;8.90;3.73;;;14.30;99.90;;;;;;5110182;28;20222;-52
2022/09/09 02:35:06;;;;;;;7.03;4.10;;;14.40;99.90;;;;;;5099710;28;20733;-51
2022/09/09 02:37:38;;;;;;;5.93;3.80;;;14.50;99.90;;;;;;5109750;28;20704;-52
2022/09/09 02:40:09;;;;;;;7.93;4.00;;;14.50;99.90;;;;;;5110368;28;20232;-52
2022/09/09 02:42:42;;;;;;;7.00;4.07;;;14.60;99.90;;;;;;5111361;28;20202;-51
2022/09/09 02:45:13;;;;;;;7.90;3.90;;;14.60;99.90;;;;;;5094960;28;20300;-51
2022/09/09 02:47:48;;;;;;;7.77;4.00;;;14.70;99.90;;;;;;5085880;28;20307;-51
2022/09/09 02:50:20;;;;;;;8.57;4.07;;;14.70;99.90;;;;;;5090907;28;20235;-51
2022/09/09 02:53:01;;;;;;;7.23;4.07;;;14.70;99.90;;;;;;5091074;28;20848;-52
2022/09/09 02:55:38;;;;;;;7.00;4.00;;;14.70;99.90;;;;;;5089907;28;20226;-51
2022/09/09 02:58:11;;;;;;;7.80;4.03;;;14.70;99.90;;;;;;5089789;28;20223;-51
2022/09/09 03:00:40;;;;;;;6.63;3.90;;;14.60;99.90;;;;;;5091985;28;20211;-52
2022/09/09 03:03:09;;;;;;;9.33;4.00;;;14.60;99.90;;;;;;5093886;28;20204;-52
2022/09/09 03:05:38;;;;;;;5.43;4.03;;;14.50;99.90;;;;;;5092306;28;20200;-52
2022/09/09 03:08:07;;;;;;;5.43;3.23;;;14.50;99.90;;;;;;5093853;28;20228;-52
2022/09/09 03:10:36;;;;;;;7.37;4.17;;;14.50;99.90;;;;;;5093482;28;20687;-52
2022/09/09 03:13:05;;;;;;;6.23;3.83;;;14.40;99.90;;;;;;5093316;28;20208;-51
2022/09/09 03:15:35;;;;;;;5.97;3.13;;;14.40;99.90;;;;;;5082884;28;20215;-52
2022/09/09 03:18:03;;;;;;;5.30;3.73;;;14.30;99.90;;;;;;5095466;28;20224;-52
2022/09/09 03:20:31;;;;;;;5.97;3.93;;;14.30;99.90;;;;;;5081523;28;20247;-51
2022/09/09 03:23:01;;;;;;;7.83;3.93;;;14.20;99.90;;;;;;5095032;28;20296;-51
2022/09/09 03:25:29;;;;;;;5.33;4.30;;;14.20;99.90;;;;;;5093452;28;20284;-52
2022/09/09 03:27:58;;;;;;;6.20;4.20;;;14.10;99.90;;;;;;5093715;28;20311;-51
2022/09/09 03:30:28;;;;;;;4.80;3.43;;;14.10;99.90;;;;;;5093438;28;20638;-52
2022/09/09 03:32:57;;;;;;;6.67;4.07;;;14.00;99.90;;;;;;5093285;28;20298;-51
2022/09/09 03:35:26;;;;;;;7.17;4.03;;;14.00;99.90;;;;;;5092793;28;20239;-51
2022/09/09 03:37:54;;;;;;;10.40;4.33;;;13.90;99.90;;;;;;5092970;28;20260;-50
2022/09/09 03:40:23;;;;;;;5.53;4.03;;;13.90;99.90;;;;;;5092905;28;20319;-52
2022/09/09 03:42:51;;;;;;;6.60;4.00;;;13.90;99.90;;;;;;5092740;28;20239;-51
2022/09/09 03:45:19;;;;;;;8.17;4.00;;;13.80;99.90;;;;;;5092859;28;20204;-52
2022/09/09 03:47:47;;;;;;;7.57;4.00;;;13.90;99.90;;;;;;5092646;28;20302;-51
2022/09/09 03:50:18;;;;;;;8.17;4.40;;;13.80;99.90;;;;;;5092443;28;20243;-52
2022/09/09 03:52:46;;;;;;;6.80;4.07;;;13.80;99.90;;;;;;5092654;28;20361;-52
2022/09/09 03:55:14;;;;;;;6.83;4.30;;;13.80;99.90;;;;;;5092730;28;20236;-52
2022/09/09 03:57:42;;;;;;;6.57;4.20;;;13.70;99.90;;;;;;5091914;28;20224;-52
2022/09/09 04:00:11;;;;;;;6.43;4.13;;;13.80;99.90;;;;;;5092493;28;20259;-51
2022/09/09 04:02:39;;;;;;;6.07;3.97;;;13.80;99.90;;;;;;5092259;28;20665;-52
2022/09/09 04:05:09;;;;;;;10.00;4.73;;;13.80;99.90;;;;;;5092461;28;20243;-52
2022/09/09 04:07:38;;;;;;;12.27;4.10;;;13.80;99.90;;;;;;5092397;28;20307;-52
2022/09/09 04:10:08;;;;;;;4.63;3.67;;;13.90;99.90;;;;;;5078541;28;20211;-51
2022/09/09 04:12:36;;;;;;;6.17;4.13;;;13.90;99.90;;;;;;5091720;28;20200;-52
2022/09/09 04:15:05;;;;;;;5.77;4.10;;;13.90;99.90;;;;;;5092131;28;20303;-52
2022/09/09 04:17:36;;;;;;;8.97;4.50;;;13.90;99.90;;;;;;5092115;28;20228;-52
2022/09/09 04:20:04;;;;;;;5.77;4.10;;;13.90;99.90;;;;;;5077041;28;20264;-51
2022/09/09 04:22:33;;;;;;;8.10;4.07;;;13.90;99.90;;;;;;5092201;28;20699;-52
2022/09/09 04:25:03;;;;;;;7.00;4.50;;;14.00;99.90;;;;;;5092009;28;20240;-51
2022/09/09 04:27:31;;;;;;;5.13;4.00;;;13.80;99.90;;;;;;5091911;28;20238;-52
2022/09/09 04:29:59;;;;;;;8.80;4.10;;;13.80;99.90;;;;;;5083706;28;20637;-52
2022/09/09 04:32:27;;;;;;;6.70;3.70;;;13.70;99.90;;;;;;5092055;28;20208;-52
2022/09/09 04:34:55;;;;;;;6.70;4.30;;;13.70;99.90;;;;;;5091456;28;20240;-52
2022/09/09 04:37:24;;;;;;;5.90;3.97;;;13.70;99.90;;;;;;5091783;28;20264;-52
2022/09/09 04:39:52;;;;;;;7.10;4.40;;;13.60;99.90;;;;;;5091810;28;20307;-52
2022/09/09 04:42:22;;;;;;;5.83;4.20;;;13.60;99.90;;;;;;5091117;28;20559;-51
2022/09/09 04:44:50;;;;;;;6.97;4.60;;;13.60;99.90;;;;;;5091807;28;20653;-52
2022/09/09 04:47:18;;;;;;;9.63;4.57;;;13.60;99.90;;;;;;5091555;28;20228;-52
2022/09/09 04:49:47;;;;;;;7.53;4.40;;;13.70;99.90;;;;;;5091369;28;20676;-51
2022/09/09 04:52:17;;;;;;;8.90;4.93;;;13.60;99.90;;;;;;5091557;28;20208;-52
2022/09/09 04:54:45;;;;;;;7.60;4.57;;;13.60;99.90;;;;;;5091351;28;20212;-51
2022/09/09 04:57:13;;;;;;;7.73;4.40;;;13.60;99.90;;;;;;5090436;28;20311;-52
2022/09/09 04:59:47;;;;;;;5.77;4.17;;;13.60;99.90;;;;;;5091442;28;20256;-51
2022/09/09 05:02:15;;;;;;;6.73;4.00;;;13.60;99.90;;;;;;5091618;28;20759;-51
2022/09/09 05:04:44;;;;;;;6.33;4.40;;;13.60;99.90;;;;;;5090811;28;20210;-51
2022/09/09 05:07:13;;;;;;;6.83;4.63;;;13.70;99.90;;;;;;5091413;28;20331;-51
2022/09/09 05:09:41;;;;;;;7.40;4.60;;;13.70;99.90;;;;;;5090539;28;20883;-52
2022/09/09 05:12:09;;;;;;;4.97;4.20;;;13.70;99.90;;;;;;5091134;28;20200;-52
2022/09/09 05:14:37;;;;;;;7.80;4.70;;;13.80;99.90;;;;;;5090808;28;20220;-52
2022/09/09 05:17:06;;;;;;;6.40;4.20;;;13.80;99.90;;;;;;5091323;28;20250;-51
2022/09/09 05:19:34;;;;;;;4.80;3.90;;;13.90;99.90;;;;;;5080254;28;20228;-51
2022/09/09 05:22:04;;;;;;;6.13;4.00;;;13.90;99.90;;;;;;5086816;28;20685;-51
2022/09/09 05:24:33;;;;;;;7.87;4.43;;;14.00;99.90;;;;;;5090837;28;20209;-52
2022/09/09 05:27:02;;;;;;;8.67;4.40;;;14.10;99.90;;;;;;5090542;28;20282;-51
2022/09/09 05:29:33;;;;;;;9.00;4.40;;;14.20;99.90;;;;;;5090923;28;20192;-52
2022/09/09 05:32:01;;;;;;;6.87;4.30;;;14.30;99.90;;;;;;5090184;28;20208;-51
2022/09/09 05:34:31;;;;;;;8.27;4.77;;;14.30;99.90;;;;;;5090398;28;20287;-52
2022/09/09 05:36:59;;;;;;;9.13;4.20;;;14.30;99.90;;;;;;5088344;28;20260;-51
2022/09/09 05:39:27;;;;;;;8.27;4.37;;;14.40;99.90;;;;;;5090009;28;20211;-52
2022/09/09 05:41:55;;;;;;;8.53;4.27;;;14.50;99.90;;;;;;5074920;28;20295;-50
2022/09/09 05:44:27;;;;;;;8.97;4.57;;;14.70;99.90;;;;;;5088848;28;20232;-51
2022/09/09 05:46:55;;;;;;;10.90;4.73;;;14.70;99.90;;;;;;5090424;28;20645;-52
2022/09/09 05:49:23;;;;;;;8.87;4.53;;;14.80;99.90;;;;;;5089837;28;20234;-51
2022/09/09 05:51:53;;;;;;;7.50;4.00;;;15.00;99.90;;;;;;5090734;28;20605;-52
2022/09/09 05:54:21;;;;;;;8.33;4.00;;;15.10;99.90;;;;;;5090163;28;20299;-51
2022/09/09 05:56:50;;;;;;;6.67;3.87;;;15.20;99.90;;;;;;5089867;28;20310;-52
2022/09/09 05:59:19;;;;;;;8.07;4.30;;;15.30;99.90;;;;;;5090139;28;20871;-51
2022/09/09 06:01:47;;;;;;;7.70;4.15;;;15.40;99.90;;;;;;5090721;28;20664;-51
2022/09/09 06:04:16;;;;;;;11.43;4.53;;;15.40;99.90;;;;;;5090164;28;20208;-52
2022/09/09 06:06:44;;;;;;;8.30;3.70;;;15.40;99.90;;;;;;5090126;28;20232;-52
2022/09/09 06:09:13;;;;;;;5.93;4.10;;;15.40;99.90;;;;;;5089643;28;20645;-52
2022/09/09 06:11:42;;;;;;;9.35;4.10;;;15.40;99.90;;;;;;5089609;28;20235;-52
2022/09/09 06:14:10;;;;;;;6.10;4.03;;;15.40;99.90;;;;;;5090085;28;20772;-51
2022/09/09 06:16:38;;;;;;;8.95;4.18;;;15.40;99.90;;;;;;5089629;28;20662;-52
2022/09/09 06:19:06;;;;;;;7.30;4.30;;;15.40;99.90;;;;;;5083617;28;20215;-50
2022/09/09 06:21:36;;;;;;;8.77;4.07;;;15.40;99.90;;;;;;5082022;28;20340;-52
2022/09/09 06:24:07;;;;;;;8.48;3.80;;;15.40;99.90;;;;;;5090328;28;20227;-52
2022/09/09 06:26:40;;;;;;;7.00;3.65;;;15.40;99.90;;;;;;5089968;28;20224;-52
2022/09/09 06:29:09;;;;;;;10.80;4.18;;;15.40;99.90;;;;;;5089797;28;20234;-51
2022/09/09 06:31:38;;;;;;;6.43;4.38;;;15.40;99.90;;;;;;5089725;28;20713;-51
2022/09/09 06:34:08;;;;;;;8.07;4.70;;;15.30;99.90;;;;;;5088507;28;20207;-52
2022/09/09 06:36:37;;;;;;;6.83;4.23;;;15.40;99.90;;;;;;5089952;28;20234;-52
2022/09/09 06:39:07;;;;;;;8.85;4.20;;;15.30;99.90;;;;;;5089790;28;20258;-51
2022/09/09 06:41:43;;;;;;;10.02;4.93;;;15.30;99.90;;;;;;5089614;28;20281;-51
2022/09/09 06:44:12;;;;;;;7.75;4.65;;;15.30;99.90;;;;;;5088580;28;20287;-51
2022/09/09 06:46:40;;;;;;;7.97;5.00;;;15.40;99.90;;;;;;5089187;28;20224;-51
2022/09/09 06:49:09;;;;;;;10.25;5.07;;;15.30;99.90;;;;;;5088725;28;20231;-51
2022/09/09 06:51:42;;;;;;;12.15;5.47;;;15.40;99.90;;;;;;5089644;28;20197;-52
2022/09/09 06:54:12;;;;;;;8.50;5.07;;;15.60;99.90;;;;;;5089641;28;20208;-52
2022/09/09 06:56:42;;;;;;;10.00;5.10;;;15.70;99.90;;;;;;5080035;28;20270;-51
2022/09/09 06:59:12;;;;;;;7.80;4.85;;;15.80;99.90;;;;;;5086032;28;20243;-51
2022/09/09 07:01:41;;;;;;;8.27;5.30;;;16.00;99.90;;;;;;5081941;28;20228;-51
2022/09/09 07:04:10;;;;;;;11.38;5.22;;;16.00;99.90;;;;;;5082645;28;20218;-50
2022/09/09 07:06:40;;;;;;;6.35;4.60;;;15.90;99.90;;;;;;5089167;28;20274;-51
2022/09/09 07:09:10;;;;;;;9.15;5.50;;;15.90;99.90;;;;;;5089175;28;20208;-52
2022/09/09 07:11:41;;;;;;;8.30;5.10;;;15.90;99.90;;;;;;5089113;28;20220;-51
2022/09/09 07:14:12;;;;;;;7.93;4.90;;;15.90;99.90;;;;;;5089139;28;20244;-51
2022/09/09 07:16:41;;;;;;;11.25;5.60;;;15.90;99.90;;;;;;5089229;28;20306;-52
2022/09/09 07:19:09;;;;;;;11.65;5.55;;;16.00;99.90;;;;;;5082136;28;20232;-52
2022/09/09 07:21:37;;;;;;;9.02;5.13;;;16.10;99.90;;;;;;5081883;28;20259;-52
2022/09/09 07:24:07;;;;;;;11.98;6.10;;;16.10;99.90;;;;;;5089014;28;20240;-51
2022/09/09 07:26:35;;;;;;;6.68;5.70;;;16.10;99.90;;;;;;5088977;28;20228;-51
2022/09/09 07:29:04;;;;;;;7.85;5.55;;;16.20;99.90;;;;;;5089303;28;20236;-51
2022/09/09 07:31:36;;;;;;;10.50;5.43;;;16.20;99.90;;;;;;5088871;28;20207;-52
2022/09/09 07:34:05;;;;;;;8.20;5.30;;;16.20;99.90;;;;;;5088936;28;20730;-52
2022/09/09 07:36:35;;;;;;;7.57;5.43;;;16.20;99.90;;;;;;5088372;28;20255;-52
2022/09/09 07:39:06;;;;;;;9.18;5.10;;;16.80;99.90;;;;;;5089106;28;20243;-52
2022/09/09 07:41:37;;;;;;;9.75;4.53;;;17.30;99.90;;;;;;5088351;28;20752;-52
2022/09/09 07:44:07;;;;;;;7.18;4.95;;;17.70;99.90;;;;;;5088888;28;20291;-51
2022/09/09 07:46:39;;;;;;;9.02;4.90;;;18.00;99.90;;;;;;5090619;28;20226;-52
2022/09/09 07:49:07;;;;;;;7.00;4.30;;;18.30;99.90;;;;;;5092676;28;20210;-52
2022/09/09 07:51:37;;;;;;;9.05;4.90;;;18.40;99.90;;;;;;5093230;28;20745;-51
2022/09/09 07:54:07;;;;;;;6.43;5.05;;;18.30;99.90;;;;;;5094663;28;20219;-52
2022/09/09 07:56:36;;;;;;;8.52;4.75;;;18.20;99.90;;;;;;5092869;28;20260;-52
2022/09/09 07:59:08;;;;;;;7.53;4.50;;;18.20;99.90;;;;;;5092473;28;20677;-52
2022/09/09 08:01:40;;;;;;;9.70;4.82;;;18.20;99.90;;;;;;5092678;28;20334;-51
2022/09/09 08:04:12;;;;;;;6.82;4.65;;;18.10;99.90;;;;;;5092059;28;20215;-51
2022/09/09 08:06:42;;;;;;;7.38;4.90;;;18.10;99.90;;;;;;5092500;28;20327;-51
2022/09/09 08:09:11;;;;;;;11.27;4.35;;;18.20;99.90;;;;;;5092506;28;20643;-51
2022/09/09 08:11:40;;;;;;;6.90;4.32;;;18.20;99.90;;;;;;5091548;28;20291;-51
2022/09/09 08:14:08;;;;;;;5.03;3.65;;;18.10;99.90;;;;;;5092385;28;20219;-51
2022/09/09 08:16:41;;;;;;;8.55;3.70;;;18.40;99.90;;;;;;5091841;28;20307;-52
2022/09/09 08:19:09;;;;;;;5.47;3.85;;;18.60;99.90;;;;;;5084302;28;20204;-51
2022/09/09 08:21:39;;;;;;;6.47;4.05;;;18.60;99.90;;;;;;5084400;28;20297;-51
2022/09/09 08:24:10;;;;;;;6.68;3.72;;;18.60;99.90;;;;;;5092434;28;20204;-51
2022/09/09 08:26:41;;;;;;;7.97;4.32;;;18.50;99.90;;;;;;5091495;28;20311;-51
2022/09/09 08:29:11;;;;;;;6.53;3.88;;;18.50;99.90;;;;;;5092343;28;20257;-51
2022/09/09 08:31:44;;;;;;;8.13;3.58;;;18.60;99.90;;;;;;5091905;28;20212;-51
2022/09/09 08:34:12;;;;;;;9.23;3.83;;;18.60;99.90;;;;;;5091123;28;20291;-52
2022/09/09 08:36:43;;;;;;;4.65;3.03;;;18.60;99.90;;;;;;5091736;28;20259;-52
2022/09/09 08:39:12;;;;;;;6.82;3.30;;;18.60;99.90;;;;;;5092063;28;20621;-51
2022/09/09 08:42:00;;;;;;;7.03;3.08;;;18.60;99.90;;;;;;5091048;28;20323;-50
2022/09/09 08:44:42;;;;;;;7.13;3.08;;;18.70;99.90;;;;;;5091768;28;20235;-51
2022/09/09 08:47:27;;;;;;;6.10;2.40;;;19.00;99.90;;;;;;5092050;28;20255;-52
2022/09/09 08:50:14;;;;;;;6.78;2.65;;;19.20;99.90;;;;;;5082735;28;20233;-51
2022/09/09 08:52:52;;;;;;;4.53;2.72;;;19.30;99.90;;;;;;5091643;28;20855;-52
2022/09/09 08:55:27;;;;;;;7.43;2.30;;;19.40;99.90;;;;;;5091298;28;20295;-52
2022/09/09 08:57:57;;;;;;;7.90;2.50;;;19.60;99.90;;;;;;5090222;28;20222;-50
2022/09/09 09:00:32;;;;;;;11.07;3.13;;;19.80;99.90;;;;;;5091203;28;20675;-52
2022/09/09 09:03:12;;;;;;;10.57;2.78;;;20.10;99.90;;;;;;5091134;28;20274;-52
2022/09/09 09:05:47;;;;;;;7.53;2.60;;;20.20;99.90;;;;;;5091029;28;20219;-52
2022/09/09 09:08:25;;;;;;;6.35;2.38;;;20.20;99.90;;;;;;5091398;28;20661;-51
2022/09/09 09:11:00;;;;;;;6.97;2.80;;;20.30;99.90;;;;;;5091135;28;20203;-51
2022/09/09 09:13:36;;;;;;;9.52;2.80;;;20.40;99.90;;;;;;5090882;28;20892;-51
2022/09/09 09:16:20;;;;;;;5.35;2.70;;;20.50;99.90;;;;;;5091188;28;20773;-51
2022/09/09 09:18:50;;;;;;;8.52;2.80;;;20.20;99.90;;;;;;5074768;28;20196;-51
2022/09/09 09:21:25;;;;;;;7.22;2.53;;;20.30;99.90;;;;;;5081288;28;20562;-52
2022/09/09 09:23:58;;;;;;;7.75;2.53;;;20.30;99.90;;;;;;5090482;28;20833;-50
2022/09/09 09:26:32;;;;;;;8.05;2.70;;;20.20;99.90;;;;;;5090279;28;20270;-52
2022/09/09 09:29:09;;;;;;;10.25;2.95;;;20.00;99.90;;;;;;5083461;28;20200;-52
2022/09/09 09:31:37;;;;;;;9.15;2.90;;;19.80;99.90;;;;;;5088868;28;20299;-52
2022/09/09 09:34:10;;;;;;;9.68;2.72;;;19.50;99.90;;;;;;5090088;28;20211;-51
2022/09/09 09:36:44;;;;;;;11.40;3.05;;;19.30;99.90;;;;;;5090185;28;20709;-52
2022/09/09 09:39:24;;;;;;;10.13;3.45;;;19.30;99.90;;;;;;5090329;28;20196;-53
2022/09/09 09:42:15;;;;;;;10.50;2.92;;;19.20;99.90;;;;;;5089406;28;20238;-52
2022/09/09 09:44:50;;;;;;;5.38;2.65;;;19.00;99.90;;;;;;5090047;28;20196;-53
2022/09/09 09:47:19;;;;;;;9.50;3.05;;;18.90;99.90;;;;;;5089229;28;20224;-52
2022/09/09 09:49:58;;;;;;;8.93;3.13;;;18.90;99.90;;;;;;5101617;28;20660;-53
2022/09/09 09:52:29;;;;;;;9.27;3.20;;;19.20;99.90;;;;;;5090054;28;20208;-52
2022/09/09 09:54:59;;;;;;;9.30;2.67;;;19.50;99.90;;;;;;5107378;28;20203;-52
2022/09/09 09:57:35;;;;;;;4.28;2.40;;;19.60;99.90;;;;;;5109873;28;20313;-52
2022/09/09 10:00:13;;;;;;;8.60;2.55;;;19.60;99.90;;;;;;5110187;28;20221;-52
2022/09/09 10:02:43;;;;;;;5.70;2.15;;;19.70;99.90;;;;;;5109672;28;20943;-52
2022/09/09 10:05:17;;;;;;;6.93;2.53;;;19.60;99.90;;;;;;5110295;28;20276;-52
2022/09/09 10:08:04;;;;;;;5.00;2.20;;;19.60;99.90;;;;;;5110336;28;20223;-52
2022/09/09 10:10:48;;;;;;;7.13;2.38;;;19.60;99.90;;;;;;5109767;28;20196;-51
2022/09/09 10:13:23;;;;;;;6.50;2.10;;;19.70;99.90;;;;;;5091311;28;20221;-52
2022/09/09 10:16:02;;;;;;;7.50;2.60;;;19.70;99.90;;;;;;5109598;28;20738;-52
2022/09/09 10:18:43;;;;;;;10.82;2.50;;;19.90;99.90;;;;;;5106592;28;20208;-51
2022/09/09 10:21:24;;;;;;;4.40;2.20;;;20.00;99.90;;;;;;5078803;28;20208;-52
2022/09/09 10:24:12;;;;;;;5.70;2.15;;;20.20;99.90;;;;;;5089435;28;20311;-53
2022/09/09 10:26:50;;;;;;;3.88;1.90;;;20.30;99.90;;;;;;5088023;28;20319;-52
2022/09/09 10:29:30;;;;;;;6.40;2.20;;;20.20;99.90;;;;;;5089540;28;20630;-52
2022/09/09 10:32:08;;;;;;;5.10;1.88;;;20.30;99.90;;;;;;5088851;28;20204;-52
2022/09/09 10:34:56;;;;;;;5.28;1.70;;;20.40;99.90;;;;;;5089439;28;20291;-52
2022/09/09 10:37:42;;;;;;;4.78;2.25;;;20.30;99.90;;;;;;5089046;28;20238;-52
2022/09/09 10:40:29;;;;;;;3.70;1.88;;;20.00;99.90;;;;;;5089672;28;20295;-52
2022/09/09 10:43:06;;;;;;;4.50;2.00;;;19.70;99.90;;;;;;5089043;28;20232;-52
2022/09/09 10:45:42;;;;;;;8.63;2.92;;;19.60;99.90;;;;;;5089360;28;20206;-53
2022/09/09 10:48:45;;;;;;;6.35;2.35;;;19.30;99.90;;;;;;5089023;28;20398;-52
2022/09/09 10:51:23;;;;;;;5.15;2.20;;;19.00;99.90;;;;;;5087453;28;20246;-52
2022/09/09 10:54:14;;;;;;;7.80;2.35;;;18.90;99.90;;;;;;5089259;28;20318;-51
2022/09/09 10:56:45;;;;;;;6.40;1.92;;;19.00;99.90;;;;;;5075164;28;20238;-52
2022/09/09 10:59:20;;;;;;;4.60;1.65;;;19.30;99.90;;;;;;5089180;28;20232;-51
2022/09/09 11:01:52;;;;;;;4.90;1.63;;;19.60;99.90;;;;;;5089599;28;20226;-52
2022/09/09 11:04:26;;;;;;;4.22;1.73;;;20.00;99.90;;;;;;5088719;28;20231;-52
2022/09/09 11:06:56;;;;;;;5.53;1.95;;;20.30;99.90;;;;;;5089475;28;20228;-52
2022/09/09 11:09:31;;;;;;;3.95;2.05;;;20.50;99.90;;;;;;5089702;28;20299;-52
2022/09/09 11:12:02;;;;;;;5.13;2.03;;;20.50;99.90;;;;;;5088549;28;20216;-52
2022/09/09 11:14:36;;;;;;;4.25;1.90;;;20.40;99.90;;;;;;5089084;28;20637;-52
2022/09/09 11:17:10;;;;;;;6.75;2.08;;;20.30;99.90;;;;;;5089235;28;20242;-52
2022/09/09 11:19:40;;;;;;;7.35;2.40;;;20.10;99.90;;;;;;5078886;28;20224;-51
2022/09/09 11:22:18;;;;;;;6.68;2.70;;;20.00;99.90;;;;;;5089173;28;20297;-52
2022/09/09 11:24:54;;;;;;;4.65;2.03;;;19.60;99.90;;;;;;5093538;28;20210;-52
2022/09/09 11:27:25;;;;;;;6.78;2.40;;;19.30;99.90;;;;;;5092170;28;20250;-52
2022/09/09 11:30:16;;;;;;;5.95;2.00;;;19.10;99.90;;;;;;5092465;28;20208;-52
2022/09/09 11:33:30;;;;;;;4.63;2.03;;;19.10;99.90;;;;;;5082414;28;20204;-52
2022/09/09 11:36:17;;;;;;;6.47;2.60;;;19.00;99.90;;;;;;5092996;28;20232;-53
2022/09/09 11:38:47;;;;;;;4.90;2.50;;;18.80;99.90;;;;;;5091727;28;20209;-52
2022/09/09 11:41:17;;;;;;;7.75;2.70;;;18.60;99.90;;;;;;5079316;28;20651;-51
2022/09/09 11:43:51;;;;;;;7.95;2.83;;;18.50;99.90;;;;;;5079684;28;20220;-52
2022/09/09 11:46:22;;;;;;;7.55;2.53;;;18.50;99.90;;;;;;5091596;28;20228;-52
2022/09/09 11:49:00;;;;;;;3.38;1.95;;;18.50;99.90;;;;;;5092486;28;20208;-52
2022/09/09 11:51:30;;;;;;;3.85;1.42;;;18.50;99.90;;;;;;5089484;28;20196;-52
2022/09/09 11:54:01;;;;;;;4.03;1.27;;;18.70;99.90;;;;;;5092667;28;20243;-52
2022/09/09 11:56:32;;;;;;;3.75;1.13;;;19.00;99.90;;;;;;5077483;28;20299;-52
2022/09/09 11:59:03;;;;;;;4.18;0.95;;;19.20;99.90;;;;;;5091685;28;20323;-52
2022/09/09 12:01:36;;;;;;;2.97;1.10;;;19.10;99.90;;;;;;5091248;28;20301;-52
2022/09/09 12:04:19;;;;;;;3.13;1.30;;;19.20;99.90;;;;;;5092551;28;20296;-52
2022/09/09 12:06:53;;;;;;;2.30;1.20;;;19.30;99.90;;;;;;5091945;28;20277;-52
2022/09/09 12:09:28;;;;;;;5.22;1.80;;;19.50;99.90;;;;;;5092240;28;20236;-53
2022/09/09 12:12:08;;;;;;;3.25;1.60;;;19.70;99.90;;;;;;5086552;28;20283;-52
2022/09/09 12:14:38;;;;;;;5.30;1.98;;;19.80;99.90;;;;;;5087528;28;20208;-52
2022/09/09 12:17:21;;;;;;;2.38;1.35;;;19.80;99.90;;;;;;5092142;28;20291;-51
2022/09/09 12:19:49;;;;;;;3.45;1.70;;;20.00;99.90;;;;;;5081627;28;20235;-51
2022/09/09 12:22:28;;;;;;;4.13;1.90;;;20.10;99.90;;;;;;5092227;28;20208;-52
2022/09/09 12:25:07;;;;;;;4.18;1.52;;;20.00;99.90;;;;;;5091795;28;20232;-52
2022/09/09 12:27:43;;;;;;;4.93;1.92;;;20.00;99.90;;;;;;5077841;28;20255;-53
2022/09/09 12:30:16;;;;;;;4.03;1.80;;;19.90;99.90;;;;;;5091761;28;20235;-53
2022/09/09 12:32:44;;;;;;;3.55;1.92;;;19.90;99.90;;;;;;5090579;28;20204;-52
2022/09/09 12:35:16;;;;;;;4.32;1.92;;;19.80;99.90;;;;;;5092829;28;20277;-52
2022/09/09 12:37:49;;;;;;;3.67;1.70;;;19.80;99.90;;;;;;5091302;28;20232;-53
2022/09/09 12:40:22;;;;;;;7.07;1.90;;;19.90;99.90;;;;;;5092355;28;20235;-52
2022/09/09 12:42:53;;;;;;;4.43;1.60;;;19.80;99.90;;;;;;5085702;28;20243;-52
2022/09/09 12:45:23;;;;;;;3.60;1.63;;;20.00;99.90;;;;;;5072359;28;20271;-52
2022/09/09 12:47:55;;;;;;;4.22;2.00;;;20.20;99.90;;;;;;5090345;28;20311;-52
2022/09/09 12:50:26;;;;;;;6.18;2.10;;;20.40;99.90;;;;;;5086079;28;20283;-52
2022/09/09 12:52:58;;;;;;;3.00;1.58;;;20.50;99.90;;;;;;5081114;28;20204;-52
2022/09/09 12:55:29;;;;;;;6.93;2.22;;;20.30;99.90;;;;;;5089015;28;20212;-53
2022/09/09 12:58:00;;;;;;;5.25;2.25;;;20.30;99.90;;;;;;5089613;28;20220;-51
2022/09/09 13:00:30;;;;;;;6.15;2.53;;;20.20;99.90;;;;;;5091170;28;20200;-52
2022/09/09 13:03:00;;;;;;;6.38;2.70;;;20.20;99.90;;;;;;5091195;28;20236;-53
2022/09/09 13:05:34;;;;;;;5.60;2.80;;;20.30;99.90;;;;;;5091252;28;20263;-53
2022/09/09 13:08:04;;;;;;;5.93;2.88;;;20.00;99.90;;;;;;5086844;28;20307;-52
2022/09/09 13:10:38;;;;;;;5.05;2.83;;;20.00;99.90;;;;;;5090891;28;20297;-53
2022/09/09 13:13:24;;;;;;;5.70;2.60;;;20.00;99.90;;;;;;5091084;28;20204;-53
2022/09/09 13:15:54;;;;;;;5.35;2.55;;;20.00;99.90;;;;;;5090942;28;20223;-53